Time;durP1;ratioP1;P1;durP2;ratioP2;P2;SDS_P1;SDS_P2;PMS_P1;PMS_P2;Temp;Humidity;BMP_temperature;BMP_pressure;BME280_temperature;BME280_humidity;BME280_pressure;Samples;Min_cycle;Max_cycle;Signal;HPM_P1;HPM_P2
2023/09/14 00:00:11;;;;;;;8.80;4.43;;;;;;;;;;10257544;28;20516;-68
2023/09/14 00:05:07;;;;;;;15.57;4.88;;;;;;;;;;10257106;28;20041;-68
2023/09/14 00:10:04;;;;;;;9.10;4.60;;;;;;;;;;10258211;28;20068;-68
2023/09/14 00:15:00;;;;;;;7.60;4.13;;;;;;;;;;10257030;28;20061;-68
2023/09/14 00:19:57;;;;;;;10.00;4.57;;;;;;;;;;10250504;28;20045;-68
2023/09/14 00:24:53;;;;;;;5.15;4.05;;;;;;;;;;10263113;28;20068;-67
2023/09/14 00:29:49;;;;;;;6.18;4.68;;;;;;;;;;10278612;28;20041;-68
2023/09/14 00:34:46;;;;;;;6.85;4.90;;;;;;;;;;10262065;28;20041;-68
2023/09/14 00:39:42;;;;;;;11.13;4.63;;;;;;;;;;10255404;28;20119;-68
2023/09/14 00:44:39;;;;;;;5.03;4.32;;;;;;;;;;10266535;28;20037;-68
2023/09/14 00:49:35;;;;;;;6.88;4.50;;;;;;;;;;10267048;28;20080;-70
2023/09/14 00:54:32;;;;;;;6.47;4.90;;;;;;;;;;10265262;28;20076;-70
2023/09/14 00:59:29;;;;;;;6.07;4.50;;;;;;;;;;10275326;28;20524;-70
2023/09/14 01:04:29;;;;;;;4.82;4.20;;;;;;;;;;10266353;28;20449;-69
2023/09/14 01:09:25;;;;;;;7.00;5.05;;;;;;;;;;10259760;28;20103;-69
2023/09/14 01:14:24;;;;;;;10.30;4.72;;;;;;;;;;10269852;28;20099;-69
2023/09/14 01:19:30;;;;;;;7.20;4.55;;;;;;;;;;10267495;28;20719;-70
2023/09/14 01:24:38;;;;;;;7.72;4.85;;;;;;;;;;10254114;28;20052;-70
2023/09/14 01:29:34;;;;;;;5.05;4.32;;;;;;;;;;10270290;28;20131;-69
2023/09/14 01:34:30;;;;;;;7.40;4.55;;;;;;;;;;10261328;28;20053;-69
2023/09/14 01:39:27;;;;;;;6.75;4.75;;;;;;;;;;10267944;28;20144;-68
2023/09/14 01:44:27;;;;;;;8.23;4.50;;;;;;;;;;10265261;28;20049;-68
2023/09/14 01:49:24;;;;;;;13.10;4.88;;;;;;;;;;10261139;28;20102;-69
2023/09/14 01:54:20;;;;;;;6.88;4.97;;;;;;;;;;10262999;28;20524;-69
2023/09/14 01:59:16;;;;;;;5.60;4.60;;;;;;;;;;10265260;28;20080;-69
2023/09/14 02:04:13;;;;;;;5.70;4.50;;;;;;;;;;10258993;28;20492;-70
2023/09/14 02:09:09;;;;;;;5.63;4.20;;;;;;;;;;10263627;28;20053;-70
2023/09/14 02:14:05;;;;;;;10.75;4.78;;;;;;;;;;10253846;28;20052;-70
2023/09/14 02:19:02;;;;;;;8.65;5.03;;;;;;;;;;10256867;28;20140;-71
2023/09/14 02:23:58;;;;;;;6.03;4.63;;;;;;;;;;10260204;28;20132;-69
2023/09/14 02:28:55;;;;;;;9.57;4.97;;;;;;;;;;10264215;28;20537;-70
2023/09/14 02:33:51;;;;;;;13.90;5.30;;;;;;;;;;10251669;28;20080;-71
2023/09/14 02:38:47;;;;;;;5.80;4.80;;;;;;;;;;10263797;28;20068;-70
2023/09/14 02:43:44;;;;;;;5.45;4.95;;;;;;;;;;10259779;28;20046;-70
2023/09/14 02:48:40;;;;;;;7.80;5.18;;;;;;;;;;10265722;28;20056;-70
2023/09/14 02:53:37;;;;;;;5.90;4.45;;;;;;;;;;10251679;28;20492;-70
2023/09/14 02:58:33;;;;;;;6.75;4.82;;;;;;;;;;10251992;28;20076;-69
2023/09/14 03:03:29;;;;;;;7.05;4.82;;;;;;;;;;10262308;28;20072;-69
2023/09/14 03:08:26;;;;;;;8.25;5.18;;;;;;;;;;10261334;28;20060;-69
2023/09/14 03:13:22;;;;;;;9.57;5.30;;;;;;;;;;10264894;28;20118;-68
2023/09/14 03:18:19;;;;;;;8.10;5.03;;;;;;;;;;10250237;28;20064;-69
2023/09/14 03:23:15;;;;;;;9.43;5.10;;;;;;;;;;10251235;28;20099;-69
2023/09/14 03:28:11;;;;;;;5.32;4.82;;;;;;;;;;10260931;28;20539;-68
2023/09/14 03:33:08;;;;;;;5.97;5.38;;;;;;;;;;10263029;28;20056;-68
2023/09/14 03:38:05;;;;;;;8.10;5.55;;;;;;;;;;10251097;28;20049;-68
2023/09/14 03:43:01;;;;;;;7.43;5.05;;;;;;;;;;10259114;28;20129;-69
2023/09/14 03:47:57;;;;;;;11.95;5.50;;;;;;;;;;10249254;28;20139;-69
2023/09/14 03:52:54;;;;;;;5.70;5.00;;;;;;;;;;10259603;28;20048;-69
2023/09/14 03:57:50;;;;;;;6.20;5.05;;;;;;;;;;10264766;28;20559;-69
2023/09/14 04:02:46;;;;;;;6.63;5.10;;;;;;;;;;10258577;28;20049;-69
2023/09/14 04:07:44;;;;;;;6.30;5.70;;;;;;;;;;10255333;28;20065;-69
2023/09/14 04:12:41;;;;;;;5.82;5.32;;;;;;;;;;10259033;28;20654;-69
2023/09/14 04:17:37;;;;;;;6.97;6.28;;;;;;;;;;10247753;28;20056;-68
2023/09/14 04:22:34;;;;;;;6.90;6.20;;;;;;;;;;10254831;28;20479;-68
2023/09/14 04:27:30;;;;;;;10.60;6.63;;;;;;;;;;10254562;28;20053;-69
2023/09/14 04:32:26;;;;;;;6.63;5.93;;;;;;;;;;10251366;28;20052;-69
2023/09/14 04:37:23;;;;;;;10.10;5.93;;;;;;;;;;10262291;28;20148;-71
2023/09/14 04:42:20;;;;;;;7.07;6.38;;;;;;;;;;10261212;28;20052;-71
2023/09/14 04:47:17;;;;;;;9.55;6.22;;;;;;;;;;10244030;28;20049;-71
2023/09/14 04:52:13;;;;;;;8.57;7.78;;;;;;;;;;10252484;28;20068;-71
2023/09/14 04:57:09;;;;;;;8.98;8.05;;;;;;;;;;10254181;28;20056;-74
2023/09/14 05:02:06;;;;;;;8.40;7.65;;;;;;;;;;10251402;28;20052;-74
2023/09/14 05:07:02;;;;;;;8.35;7.65;;;;;;;;;;10260820;28;20144;-74
2023/09/14 05:11:59;;;;;;;8.50;7.35;;;;;;;;;;10258459;28;20041;-72
2023/09/14 05:16:56;;;;;;;9.75;8.45;;;;;;;;;;10256047;28;20637;-74
2023/09/14 05:21:52;;;;;;;9.10;7.90;;;;;;;;;;10258162;28;20061;-74
2023/09/14 05:26:49;;;;;;;8.98;8.15;;;;;;;;;;10254519;28;20053;-75
2023/09/14 05:31:45;;;;;;;9.45;7.63;;;;;;;;;;10258158;28;20076;-74
2023/09/14 05:36:42;;;;;;;9.70;7.65;;;;;;;;;;10241554;28;20604;-74
2023/09/14 05:41:40;;;;;;;8.27;7.47;;;;;;;;;;10263348;28;20136;-74
2023/09/14 05:46:37;;;;;;;8.07;7.47;;;;;;;;;;10260905;28;20389;-74
2023/09/14 05:51:33;;;;;;;9.50;8.35;;;;;;;;;;10265409;28;20045;-73
2023/09/14 05:56:30;;;;;;;11.60;8.27;;;;;;;;;;10259519;28;20061;-73
2023/09/14 06:01:27;;;;;;;8.93;8.13;;;;;;;;;;10257854;28;20049;-73
2023/09/14 06:06:25;;;;;;;10.80;8.40;;;;;;;;;;10266044;28;20099;-73
2023/09/14 06:11:22;;;;;;;10.85;8.32;;;;;;;;;;10270759;28;20072;-73
2023/09/14 06:16:19;;;;;;;8.70;7.95;;;;;;;;;;10263386;28;20114;-75
2023/09/14 06:21:18;;;;;;;8.68;7.03;;;;;;;;;;10259034;28;20486;-75
2023/09/14 06:26:14;;;;;;;8.57;7.70;;;;;;;;;;10246366;28;20041;-75
2023/09/14 06:31:11;;;;;;;7.88;7.28;;;;;;;;;;10264093;28;20179;-74
2023/09/14 06:36:07;;;;;;;10.00;7.55;;;;;;;;;;10261541;28;20111;-75
2023/09/14 06:41:04;;;;;;;7.95;7.15;;;;;;;;;;10263248;28;20464;-74
2023/09/14 06:46:00;;;;;;;8.57;7.05;;;;;;;;;;10253637;28;20053;-75
2023/09/14 06:50:57;;;;;;;6.97;6.28;;;;;;;;;;10264427;28;20049;-75
2023/09/14 06:56:29;;;;;;;9.57;6.47;;;;;;;;;;10258806;22;20408;-75
2023/09/14 07:01:46;;;;;;;8.45;5.60;;;;;;;;;;10196409;28;20467;-75
2023/09/14 07:06:43;;;;;;;11.43;6.13;;;;;;;;;;10242774;28;20153;-75
2023/09/14 07:11:39;;;;;;;7.45;6.20;;;;;;;;;;10260146;28;20060;-74
2023/09/14 07:16:36;;;;;;;14.88;7.15;;;;;;;;;;10238276;28;20057;-73
2023/09/14 07:21:36;;;;;;;8.32;6.10;;;;;;;;;;10256612;28;20413;-73
2023/09/14 07:26:38;;;;;;;6.82;6.10;;;;;;;;;;10258996;28;20589;-73
2023/09/14 07:31:34;;;;;;;7.60;5.77;;;;;;;;;;10260776;28;20107;-73
2023/09/14 07:36:32;;;;;;;5.57;5.07;;;;;;;;;;10228399;28;20053;-75
2023/09/14 07:41:28;;;;;;;7.53;6.20;;;;;;;;;;10251758;28;20057;-74
2023/09/14 07:46:25;;;;;;;8.40;5.53;;;;;;;;;;10258533;28;20532;-74
2023/09/14 07:51:21;;;;;;;7.40;5.80;;;;;;;;;;10258337;28;20049;-74
2023/09/14 07:56:18;;;;;;;7.25;5.90;;;;;;;;;;10257781;28;20520;-73
2023/09/14 08:01:15;;;;;;;5.60;5.10;;;;;;;;;;10255658;28;20053;-73
2023/09/14 08:06:11;;;;;;;6.10;5.15;;;;;;;;;;10263698;28;20056;-73
2023/09/14 08:11:08;;;;;;;11.38;5.60;;;;;;;;;;10229066;28;20060;-74
2023/09/14 08:16:04;;;;;;;10.35;5.40;;;;;;;;;;10253008;28;20072;-73
2023/09/14 08:21:01;;;;;;;6.78;5.28;;;;;;;;;;10243223;28;20072;-73
2023/09/14 08:25:57;;;;;;;7.93;5.88;;;;;;;;;;10234402;28;20572;-73
2023/09/14 08:30:54;;;;;;;7.05;5.13;;;;;;;;;;10244952;28;20056;-73
2023/09/14 08:35:50;;;;;;;6.10;5.45;;;;;;;;;;10256144;28;20057;-73
2023/09/14 08:40:51;;;;;;;6.18;5.53;;;;;;;;;;10261436;28;20076;-73
2023/09/14 08:45:50;;;;;;;5.75;5.20;;;;;;;;;;10243606;28;20053;-73
2023/09/14 08:50:48;;;;;;;7.50;5.70;;;;;;;;;;10248909;28;20099;-74
2023/09/14 08:55:44;;;;;;;6.13;5.50;;;;;;;;;;10265123;28;20550;-73
2023/09/14 09:00:41;;;;;;;10.25;5.88;;;;;;;;;;10256729;28;20065;-74
2023/09/14 09:05:37;;;;;;;8.50;5.30;;;;;;;;;;10254626;28;20504;-74
2023/09/14 09:10:36;;;;;;;7.25;5.63;;;;;;;;;;10256239;28;20496;-72
2023/09/14 09:15:36;;;;;;;13.73;6.35;;;;;;;;;;10261598;28;20501;-72
2023/09/14 09:20:33;;;;;;;6.32;5.72;;;;;;;;;;10264418;28;20507;-73
2023/09/14 09:25:41;;;;;;;7.25;5.72;;;;;;;;;;10260375;28;20501;-73
2023/09/14 09:30:38;;;;;;;7.63;5.70;;;;;;;;;;10256467;28;20048;-73
2023/09/14 09:35:35;;;;;;;6.35;5.50;;;;;;;;;;10259950;28;20045;-73
2023/09/14 09:40:34;;;;;;;7.03;5.85;;;;;;;;;;10254916;28;20052;-73
2023/09/14 09:45:30;;;;;;;8.13;5.93;;;;;;;;;;10260597;28;20083;-73
2023/09/14 09:50:27;;;;;;;6.95;5.80;;;;;;;;;;10256220;28;20045;-73
2023/09/14 09:55:24;;;;;;;7.82;5.82;;;;;;;;;;10252642;28;20068;-72
2023/09/14 10:00:26;;;;;;;7.85;6.00;;;;;;;;;;10251517;28;20116;-73
2023/09/14 10:05:27;;;;;;;6.13;5.60;;;;;;;;;;10268169;28;20049;-73
2023/09/14 10:10:26;;;;;;;7.53;5.70;;;;;;;;;;10271693;28;20045;-73
2023/09/14 10:15:26;;;;;;;7.18;5.40;;;;;;;;;;10256652;28;20045;-73
2023/09/14 10:20:24;;;;;;;8.90;5.40;;;;;;;;;;10259187;28;20405;-73
2023/09/14 10:25:20;;;;;;;8.32;5.97;;;;;;;;;;10269311;28;20068;-73
2023/09/14 10:30:18;;;;;;;7.38;6.30;;;;;;;;;;10241696;28;20056;-73
2023/09/14 10:35:14;;;;;;;6.82;5.95;;;;;;;;;;10251058;28;20076;-73
2023/09/14 10:40:12;;;;;;;9.82;6.43;;;;;;;;;;10266942;28;20111;-73
2023/09/14 10:45:10;;;;;;;7.57;6.47;;;;;;;;;;10244591;28;20065;-73
2023/09/14 10:50:08;;;;;;;8.57;7.00;;;;;;;;;;10261571;28;20650;-73
2023/09/14 10:55:08;;;;;;;8.82;6.35;;;;;;;;;;10264916;28;20096;-73
2023/09/14 11:00:06;;;;;;;6.95;6.20;;;;;;;;;;10258617;28;20069;-73
2023/09/14 11:05:25;;;;;;;9.02;5.90;;;;;;;;;;10257401;28;20063;-72
2023/09/14 11:10:22;;;;;;;7.60;6.80;;;;;;;;;;10262529;28;20057;-72
2023/09/14 11:15:20;;;;;;;9.35;6.65;;;;;;;;;;10247014;28;20053;-72
2023/09/14 11:20:20;;;;;;;7.03;6.43;;;;;;;;;;10222910;28;20049;-72
2023/09/14 11:25:30;;;;;;;7.38;6.78;;;;;;;;;;10243400;28;20059;-72
2023/09/14 11:30:43;;;;;;;7.55;6.85;;;;;;;;;;10251674;28;20041;-71
2023/09/14 11:35:45;;;;;;;7.10;6.40;;;;;;;;;;10250592;28;20048;-71
2023/09/14 11:40:43;;;;;;;7.05;6.40;;;;;;;;;;10252292;28;20423;-72
2023/09/14 11:45:41;;;;;;;6.80;6.28;;;;;;;;;;10259199;28;20049;-72
2023/09/14 11:50:50;;;;;;;12.03;6.70;;;;;;;;;;10252088;28;20041;-72
2023/09/14 11:55:47;;;;;;;7.15;6.53;;;;;;;;;;10253165;28;20420;-71
2023/09/14 12:00:45;;;;;;;6.30;5.70;;;;;;;;;;10250456;28;20049;-72
2023/09/14 12:05:42;;;;;;;6.90;6.30;;;;;;;;;;10260592;28;20049;-72
2023/09/14 12:10:39;;;;;;;6.68;6.05;;;;;;;;;;10257924;28;20079;-72
2023/09/14 12:15:35;;;;;;;6.90;6.00;;;;;;;;;;10250023;28;20374;-72
2023/09/14 12:20:35;;;;;;;8.23;6.40;;;;;;;;;;10228981;28;20722;-72
2023/09/14 12:25:32;;;;;;;6.88;6.25;;;;;;;;;;10262154;28;20505;-72
2023/09/14 12:30:29;;;;;;;6.63;5.95;;;;;;;;;;10256160;28;20068;-72
2023/09/14 12:35:25;;;;;;;5.95;5.35;;;;;;;;;;10263506;28;20677;-72
2023/09/14 12:40:21;;;;;;;6.13;5.57;;;;;;;;;;10250285;28;20057;-72
2023/09/14 12:45:19;;;;;;;6.40;5.80;;;;;;;;;;10257912;28;20065;-71
2023/09/14 12:50:15;;;;;;;5.38;4.90;;;;;;;;;;10258929;28;20053;-72
2023/09/14 12:55:13;;;;;;;5.28;4.60;;;;;;;;;;10256223;28;20057;-72
2023/09/14 13:00:19;;;;;;;4.78;4.35;;;;;;;;;;10259150;28;20080;-71
2023/09/14 13:05:20;;;;;;;4.97;4.18;;;;;;;;;;10238046;28;20132;-71
2023/09/14 13:10:20;;;;;;;5.95;4.90;;;;;;;;;;10255268;28;20227;-72
2023/09/14 13:15:22;;;;;;;5.00;4.50;;;;;;;;;;10251154;28;20063;-72
2023/09/14 13:20:19;;;;;;;6.57;4.80;;;;;;;;;;10248425;28;20535;-72
2023/09/14 13:25:16;;;;;;;5.10;4.25;;;;;;;;;;10268897;22;20055;-72
2023/09/14 13:30:12;;;;;;;5.88;5.10;;;;;;;;;;10231644;28;20540;-72
2023/09/14 13:35:10;;;;;;;5.32;4.72;;;;;;;;;;10222691;28;20041;-72
2023/09/14 13:40:19;;;;;;;8.13;5.18;;;;;;;;;;10219883;28;20061;-72
2023/09/14 13:45:16;;;;;;;6.28;5.00;;;;;;;;;;10222444;28;20053;-72
2023/09/14 13:50:12;;;;;;;6.70;5.18;;;;;;;;;;10218904;28;20477;-72
2023/09/14 13:55:10;;;;;;;6.70;5.25;;;;;;;;;;10220063;28;20053;-72
2023/09/14 14:00:08;;;;;;;7.18;5.18;;;;;;;;;;10223932;28;20057;-72
2023/09/14 14:05:06;;;;;;;10.20;5.70;;;;;;;;;;10222105;28;20053;-72
2023/09/14 14:10:05;;;;;;;6.55;5.50;;;;;;;;;;10227372;28;20076;-72
2023/09/14 14:15:02;;;;;;;8.50;6.20;;;;;;;;;;10210653;28;20046;-71
2023/09/14 14:19:58;;;;;;;6.07;5.57;;;;;;;;;;10219719;28;20064;-72
2023/09/14 14:24:54;;;;;;;6.57;5.97;;;;;;;;;;10223498;28;20053;-71
2023/09/14 14:29:51;;;;;;;5.65;5.15;;;;;;;;;;10192236;28;20095;-71
2023/09/14 14:34:47;;;;;;;5.95;5.07;;;;;;;;;;10228411;28;20045;-71
2023/09/14 14:39:43;;;;;;;5.63;5.10;;;;;;;;;;10218538;28;20045;-72
2023/09/14 14:44:40;;;;;;;5.47;4.95;;;;;;;;;;10214573;28;20049;-71
2023/09/14 14:49:36;;;;;;;12.07;5.45;;;;;;;;;;10219014;28;20176;-72
2023/09/14 14:54:33;;;;;;;9.45;5.70;;;;;;;;;;10212698;28;20485;-71
2023/09/14 14:59:31;;;;;;;7.30;5.55;;;;;;;;;;10216649;28;20053;-72
2023/09/14 15:04:28;;;;;;;5.80;5.20;;;;;;;;;;10218724;28;20421;-72
2023/09/14 15:09:24;;;;;;;6.35;5.20;;;;;;;;;;10202156;28;20088;-72
2023/09/14 15:14:20;;;;;;;6.22;5.47;;;;;;;;;;10218100;28;20042;-71
2023/09/14 15:19:17;;;;;;;5.43;4.90;;;;;;;;;;10219386;28;20049;-72
2023/09/14 15:24:14;;;;;;;6.78;5.05;;;;;;;;;;10224546;28;20049;-72
2023/09/14 15:29:11;;;;;;;6.97;5.25;;;;;;;;;;10218810;28;20564;-71
2023/09/14 15:34:07;;;;;;;8.60;5.18;;;;;;;;;;10221051;28;20050;-72
2023/09/14 15:39:03;;;;;;;9.13;5.70;;;;;;;;;;10220406;28;20061;-70
2023/09/14 15:44:00;;;;;;;8.70;5.15;;;;;;;;;;10212713;28;20049;-70
2023/09/14 15:48:56;;;;;;;5.65;5.13;;;;;;;;;;10231033;28;20417;-72
2023/09/14 15:59:04;;;;;;;5.13;4.63;;;;;;;;;;9861591;26;20402;-72
2023/09/14 16:04:01;;;;;;;6.05;5.00;;;;;;;;;;10260746;28;20044;-72
2023/09/14 16:08:58;;;;;;;7.38;5.65;;;;;;;;;;10248790;28;20060;-72
2023/09/14 16:13:54;;;;;;;9.48;5.43;;;;;;;;;;10244677;28;20041;-72
2023/09/14 16:18:50;;;;;;;7.00;5.20;;;;;;;;;;10248761;28;20075;-73
2023/09/14 16:23:47;;;;;;;7.05;5.30;;;;;;;;;;10250864;28;20089;-72
2023/09/14 16:28:43;;;;;;;6.20;5.18;;;;;;;;;;10245822;28;20461;-72
2023/09/14 16:33:40;;;;;;;7.18;5.47;;;;;;;;;;10259097;28;20102;-72
2023/09/14 16:38:36;;;;;;;7.78;5.15;;;;;;;;;;10258270;28;20056;-72
2023/09/14 16:43:33;;;;;;;6.80;4.78;;;;;;;;;;10237903;28;20099;-72
2023/09/14 16:48:34;;;;;;;5.93;5.03;;;;;;;;;;10244947;28;20049;-72
2023/09/14 16:53:31;;;;;;;5.75;4.70;;;;;;;;;;10257523;28;20045;-72
2023/09/14 16:58:28;;;;;;;5.95;4.93;;;;;;;;;;10255881;28;20560;-72
2023/09/14 17:03:27;;;;;;;5.28;4.65;;;;;;;;;;10244581;28;20111;-71
2023/09/14 17:08:23;;;;;;;5.88;4.68;;;;;;;;;;10253094;28;20049;-72
2023/09/14 17:13:20;;;;;;;9.45;5.13;;;;;;;;;;10230970;28;20060;-72
2023/09/14 17:18:17;;;;;;;5.38;4.88;;;;;;;;;;10258743;28;20065;-72
2023/09/14 17:23:13;;;;;;;7.53;5.68;;;;;;;;;;10247666;28;20115;-72
2023/09/14 17:28:11;;;;;;;6.75;5.32;;;;;;;;;;10285857;22;20559;-72
2023/09/14 17:33:07;;;;;;;8.05;5.75;;;;;;;;;;10236036;28;20041;-72
2023/09/14 17:38:04;;;;;;;7.15;5.88;;;;;;;;;;10243348;22;20053;-72
2023/09/14 17:43:00;;;;;;;9.23;5.60;;;;;;;;;;10235681;28;20067;-72
2023/09/14 17:47:57;;;;;;;9.85;5.57;;;;;;;;;;10228407;28;20131;-72
2023/09/14 17:52:53;;;;;;;8.40;5.35;;;;;;;;;;10199418;28;20133;-72
2023/09/14 17:57:49;;;;;;;6.25;5.65;;;;;;;;;;10198482;28;20050;-72
2023/09/14 18:02:46;;;;;;;7.07;5.78;;;;;;;;;;10217902;28;20060;-72
2023/09/14 18:19:44;;;;;;;7.72;5.97;;;;;;;;;;9979033;29;20559;-72
2023/09/14 18:24:55;;;;;;;6.78;5.85;;;;;;;;;;9997257;29;20147;-72
2023/09/14 18:29:51;;;;;;;7.75;5.93;;;;;;;;;;10145852;28;20041;-72
2023/09/14 18:34:48;;;;;;;6.72;5.60;;;;;;;;;;10177724;28;20564;-72
2023/09/14 18:39:46;;;;;;;8.40;6.00;;;;;;;;;;10181459;28;20080;-72
2023/09/14 18:44:42;;;;;;;7.00;6.20;;;;;;;;;;10174193;28;20141;-72
2023/09/14 18:49:38;;;;;;;7.95;6.63;;;;;;;;;;10175266;28;20046;-72
2023/09/14 18:54:35;;;;;;;8.30;7.05;;;;;;;;;;10263523;22;20410;-72
2023/09/14 18:59:31;;;;;;;9.13;7.28;;;;;;;;;;10259021;28;20076;-71
2023/09/14 19:04:31;;;;;;;8.80;6.97;;;;;;;;;;10246725;28;20056;-72
2023/09/14 19:09:27;;;;;;;9.75;7.47;;;;;;;;;;10239498;28;20067;-71
2023/09/14 19:14:24;;;;;;;10.10;7.70;;;;;;;;;;10259750;28;20045;-72
2023/09/14 19:19:21;;;;;;;10.52;6.70;;;;;;;;;;10252620;28;20149;-72
2023/09/14 19:24:17;;;;;;;10.23;6.80;;;;;;;;;;10253344;28;20049;-71
2023/09/14 19:29:13;;;;;;;8.38;6.70;;;;;;;;;;10259809;28;20041;-71
2023/09/14 19:34:10;;;;;;;9.23;7.50;;;;;;;;;;10259768;28;20743;-71
2023/09/14 19:39:06;;;;;;;14.15;7.63;;;;;;;;;;10255005;28;20136;-71
2023/09/14 19:44:03;;;;;;;10.80;8.13;;;;;;;;;;10226318;28;20103;-72
2023/09/14 19:49:00;;;;;;;9.68;8.68;;;;;;;;;;10260040;28;20115;-72
2023/09/14 19:53:58;;;;;;;17.77;8.50;;;;;;;;;;10249316;28;20077;-71
2023/09/14 19:58:54;;;;;;;11.90;8.77;;;;;;;;;;10255551;28;20118;-71
2023/09/14 20:03:50;;;;;;;10.95;8.98;;;;;;;;;;10250602;28;20076;-68
2023/09/14 20:08:47;;;;;;;10.60;8.85;;;;;;;;;;10238775;28;20079;-70
2023/09/14 20:13:44;;;;;;;12.35;8.07;;;;;;;;;;10257313;28;20209;-69
2023/09/14 20:18:41;;;;;;;12.27;8.27;;;;;;;;;;10257520;28;20102;-69
2023/09/14 20:23:38;;;;;;;13.15;9.25;;;;;;;;;;10251435;28;20172;-69
2023/09/14 20:28:35;;;;;;;12.18;8.95;;;;;;;;;;10257237;28;20072;-68
2023/09/14 20:33:31;;;;;;;10.57;9.02;;;;;;;;;;10263104;28;20087;-67
2023/09/14 20:38:27;;;;;;;11.05;8.20;;;;;;;;;;10255520;28;20061;-68
2023/09/14 20:43:25;;;;;;;9.77;8.75;;;;;;;;;;10265796;28;20076;-69
2023/09/14 20:48:21;;;;;;;13.52;8.80;;;;;;;;;;10270527;28;20037;-69
2023/09/14 20:53:18;;;;;;;10.48;8.10;;;;;;;;;;10265252;28;20068;-68
2023/09/14 20:58:14;;;;;;;9.95;8.80;;;;;;;;;;10264107;28;20099;-68
2023/09/14 21:03:11;;;;;;;13.35;8.98;;;;;;;;;;10266693;28;20856;-69
2023/09/14 21:08:07;;;;;;;14.88;8.18;;;;;;;;;;10263832;28;20111;-69
2023/09/14 21:13:04;;;;;;;11.20;8.30;;;;;;;;;;10261268;28;20639;-68
2023/09/14 21:18:01;;;;;;;11.60;7.97;;;;;;;;;;10268151;28;20056;-68
2023/09/14 21:22:57;;;;;;;11.88;8.52;;;;;;;;;;10262981;28;20489;-68
2023/09/14 21:27:54;;;;;;;8.75;7.53;;;;;;;;;;10268033;28;20072;-68
2023/09/14 21:32:50;;;;;;;10.18;7.80;;;;;;;;;;10261171;28;20123;-68
2023/09/14 21:37:47;;;;;;;10.68;7.43;;;;;;;;;;10253729;28;20452;-68
2023/09/14 21:42:43;;;;;;;10.05;6.57;;;;;;;;;;10266359;28;20056;-68
2023/09/14 21:47:39;;;;;;;9.98;7.10;;;;;;;;;;10266407;28;20080;-68
2023/09/14 21:52:35;;;;;;;9.35;7.80;;;;;;;;;;10258437;28;20041;-68
2023/09/14 21:57:32;;;;;;;7.88;7.13;;;;;;;;;;10255682;28;20068;-67
2023/09/14 22:02:30;;;;;;;12.15;7.40;;;;;;;;;;10263446;28;20075;-68
2023/09/14 22:07:27;;;;;;;8.80;7.13;;;;;;;;;;10257975;28;20137;-67
2023/09/14 22:12:24;;;;;;;10.90;7.80;;;;;;;;;;10258208;28;20521;-68
2023/09/14 22:17:21;;;;;;;10.40;6.88;;;;;;;;;;10259274;28;20091;-68
2023/09/14 22:22:17;;;;;;;8.70;7.18;;;;;;;;;;10254753;28;20092;-69
2023/09/14 22:27:14;;;;;;;10.55;6.85;;;;;;;;;;10262801;28;20044;-68
2023/09/14 22:32:10;;;;;;;9.02;6.90;;;;;;;;;;10264417;28;20093;-68
2023/09/14 22:37:06;;;;;;;10.52;7.43;;;;;;;;;;10264144;28;20052;-65
2023/09/14 22:42:03;;;;;;;6.72;6.13;;;;;;;;;;10252837;28;20129;-66
2023/09/14 22:46:59;;;;;;;7.35;6.63;;;;;;;;;;10258108;28;20069;-68
2023/09/14 22:51:56;;;;;;;10.77;6.88;;;;;;;;;;10253634;28;20045;-68
2023/09/14 22:56:53;;;;;;;7.90;6.85;;;;;;;;;;10265934;28;20764;-67
2023/09/14 23:01:49;;;;;;;7.57;6.88;;;;;;;;;;10259636;28;20049;-67
2023/09/14 23:06:46;;;;;;;8.10;6.63;;;;;;;;;;10240829;28;20065;-68
2023/09/14 23:11:43;;;;;;;8.77;6.65;;;;;;;;;;10262448;28;20064;-68
2023/09/14 23:16:52;;;;;;;9.18;7.28;;;;;;;;;;10253568;28;21514;-68
2023/09/14 23:21:49;;;;;;;8.02;7.18;;;;;;;;;;10258429;28;20049;-67
2023/09/14 23:26:46;;;;;;;7.28;6.20;;;;;;;;;;10262375;28;20053;-67
2023/09/14 23:31:48;;;;;;;9.02;6.90;;;;;;;;;;10258095;28;20068;-67
2023/09/14 23:36:45;;;;;;;7.60;6.82;;;;;;;;;;10251619;28;20107;-67
2023/09/14 23:41:43;;;;;;;7.90;7.10;;;;;;;;;;10257189;28;20092;-68
2023/09/14 23:46:40;;;;;;;7.95;6.35;;;;;;;;;;10262587;28;20451;-68
2023/09/14 23:51:41;;;;;;;10.52;6.97;;;;;;;;;;10259056;28;20053;-68
2023/09/14 23:56:38;;;;;;;8.48;6.50;;;;;;;;;;10256483;28;20051;-67
